createdAt,value
2018-04-08T00:00:28.256Z,97660.36
2018-04-08T00:00:59.884Z,97660.73
2018-04-08T00:01:31.497Z,97663.72
2018-04-08T00:02:03.116Z,97664.06
2018-04-08T00:02:34.728Z,97659.02
2018-04-08T00:03:06.325Z,97659.36
2018-04-08T00:03:37.964Z,97661.55
2018-04-08T00:04:09.575Z,97656.45
2018-04-08T00:04:41.155Z,97664.14
2018-04-08T00:05:12.740Z,97657.33
2018-04-08T00:05:44.341Z,97662.83
2018-04-08T00:06:15.947Z,97657.28
2018-04-08T00:06:47.541Z,97655.61
2018-04-08T00:07:19.125Z,97663.25
2018-04-08T00:07:50.736Z,97664.11
2018-04-08T00:08:22.347Z,97653.91
2018-04-08T00:08:53.987Z,97663.28
2018-04-08T00:09:25.583Z,97655.66
2018-04-08T00:09:57.195Z,97652.17
2018-04-08T00:10:28.808Z,97657.23
2018-04-08T00:11:00.403Z,97657.67
2018-04-08T00:11:31.992Z,97647.50
2018-04-08T00:12:03.566Z,97650.94
2018-04-08T00:12:35.228Z,97642.83
2018-04-08T00:13:06.848Z,97634.74
2018-04-08T00:13:38.440Z,97638.58
2018-04-08T00:14:10.014Z,97644.08
2018-04-08T00:14:41.599Z,97637.30
2018-04-08T00:15:13.212Z,97623.72
2018-04-08T00:15:44.834Z,97634.74
2018-04-08T00:16:16.421Z,97638.22
2018-04-08T00:16:48.019Z,97630.56
2018-04-08T00:17:19.616Z,97633.05
2018-04-08T00:17:51.249Z,97631.33
2018-04-08T00:18:22.850Z,97634.28
2018-04-08T00:18:54.464Z,97626.38
2018-04-08T00:19:26.051Z,97622.97
2018-04-08T00:19:57.655Z,97635.77
2018-04-08T00:20:29.244Z,97627.77
2018-04-08T00:21:00.860Z,97625.72
2018-04-08T00:21:32.471Z,97621.97
2018-04-08T00:22:04.085Z,97631.41
2018-04-08T00:22:35.666Z,97615.28
2018-04-08T00:23:07.326Z,97618.30
2018-04-08T00:23:38.916Z,97626.09
2018-04-08T00:24:10.504Z,97630.31
2018-04-08T00:24:42.096Z,97621.36
2018-04-08T00:25:13.684Z,97622.20
2018-04-08T00:25:45.340Z,97626.45
2018-04-08T00:26:16.922Z,97618.80
2018-04-08T00:26:48.501Z,97623.47
2018-04-08T00:27:20.103Z,97613.63
2018-04-08T00:27:51.707Z,97608.08
2018-04-08T00:28:23.296Z,97614.88
2018-04-08T00:28:54.911Z,97606.00
2018-04-08T00:29:26.527Z,97610.68
2018-04-08T00:29:58.103Z,97606.86
2018-04-08T00:30:29.688Z,97611.98
2018-04-08T00:31:01.263Z,97614.55
2018-04-08T00:31:32.872Z,97607.81
2018-04-08T00:32:04.475Z,97604.41
2018-04-08T00:32:36.063Z,97612.47
2018-04-08T00:33:07.674Z,97605.58
2018-04-08T00:33:39.274Z,97600.98
2018-04-08T00:34:10.894Z,97609.84
2018-04-08T00:34:42.483Z,97607.78
2018-04-08T00:35:14.064Z,97598.86
2018-04-08T00:35:45.679Z,97610.84
2018-04-08T00:36:17.288Z,97606.54
2018-04-08T00:36:48.880Z,97609.09
2018-04-08T00:37:20.470Z,97598.94
2018-04-08T00:37:52.070Z,97615.55
2018-04-08T00:38:23.674Z,97601.50
2018-04-08T00:38:55.268Z,97605.77
2018-04-08T00:39:26.911Z,97587.03
2018-04-08T00:39:58.518Z,97609.17
2018-04-08T00:40:30.133Z,97610.02
2018-04-08T00:41:01.743Z,97604.05
2018-04-08T00:41:33.332Z,97606.59
2018-04-08T00:42:04.916Z,97614.19
2018-04-08T00:42:36.504Z,97605.69
2018-04-08T00:43:08.136Z,97621.08
2018-04-08T00:43:39.724Z,97608.28
2018-04-08T00:44:11.376Z,97616.77
2018-04-08T00:44:42.958Z,97617.59
2018-04-08T00:45:14.572Z,97610.33
2018-04-08T00:45:46.187Z,97608.22
2018-04-08T00:46:17.780Z,97600.06
2018-04-08T00:46:49.390Z,97600.91
2018-04-08T00:47:20.969Z,97607.35
2018-04-08T00:47:52.596Z,97613.25
2018-04-08T00:48:24.203Z,97607.35
2018-04-08T00:48:55.808Z,97603.94
2018-04-08T00:49:27.402Z,97607.78
2018-04-08T00:49:59.019Z,97603.47
2018-04-08T00:50:30.630Z,97617.52
2018-04-08T00:51:02.231Z,97606.38
2018-04-08T00:51:33.896Z,97608.98
2018-04-08T00:52:05.500Z,97609.34
2018-04-08T00:52:37.102Z,97609.74
2018-04-08T00:53:08.728Z,97625.52
2018-04-08T00:53:40.331Z,97611.04
2018-04-08T00:54:11.960Z,97598.19
2018-04-08T00:54:43.555Z,97596.98
2018-04-08T00:55:15.164Z,97622.10
2018-04-08T00:55:46.753Z,97607.64
2018-04-08T00:56:18.364Z,97620.34
2018-04-08T00:56:50.032Z,97613.08
2018-04-08T00:57:21.610Z,97611.39
2018-04-08T00:57:53.197Z,97608.83
2018-04-08T00:58:24.808Z,97617.71
2018-04-08T00:58:56.410Z,97607.02
2018-04-08T00:59:28.026Z,97595.97
2018-04-08T00:59:59.639Z,97604.55
2018-04-08T01:00:31.248Z,97600.70
2018-04-08T01:01:02.827Z,97593.49
2018-04-08T01:01:34.431Z,97606.53
2018-04-08T01:02:06.077Z,97592.87
2018-04-08T01:02:37.692Z,97603.48
2018-04-08T01:03:09.285Z,97603.48
2018-04-08T01:03:40.888Z,97596.30
2018-04-08T01:04:12.500Z,97593.69
2018-04-08T01:04:44.092Z,97597.92
2018-04-08T01:05:15.699Z,97600.91
2018-04-08T01:05:47.270Z,97613.69
2018-04-08T01:06:18.852Z,97606.00
2018-04-08T01:06:50.452Z,97603.03
2018-04-08T01:07:22.088Z,97606.95
2018-04-08T01:07:53.673Z,97607.04
2018-04-08T01:08:25.282Z,97611.30
2018-04-08T01:08:56.880Z,97609.16
2018-04-08T01:09:28.513Z,97607.45
2018-04-08T01:10:00.124Z,97603.98
2018-04-08T01:10:31.712Z,97606.20
2018-04-08T01:11:03.286Z,97616.73
2018-04-08T01:11:34.882Z,97604.77
2018-04-08T01:12:06.472Z,97610.77
2018-04-08T01:12:38.114Z,97601.41
2018-04-08T01:13:09.705Z,97598.45
2018-04-08T01:13:41.296Z,97598.02
2018-04-08T01:14:12.879Z,97606.05
2018-04-08T01:14:44.479Z,97604.77
2018-04-08T01:15:16.092Z,97595.44
2018-04-08T01:15:47.742Z,97612.44
2018-04-08T01:16:19.338Z,97608.58
2018-04-08T01:16:50.931Z,97604.25
2018-04-08T01:17:22.552Z,97621.29
2018-04-08T01:17:54.165Z,97614.95
2018-04-08T01:18:25.788Z,97610.18
2018-04-08T01:18:57.376Z,97614.44
2018-04-08T01:19:28.951Z,97615.29
2018-04-08T01:20:00.561Z,97615.73
2018-04-08T01:20:32.172Z,97616.23
2018-04-08T01:21:03.836Z,97613.35
2018-04-08T01:21:35.444Z,97615.45
2018-04-08T01:22:07.060Z,97618.02
2018-04-08T01:22:38.668Z,97623.92
2018-04-08T01:23:10.304Z,97617.97
2018-04-08T01:23:41.943Z,97609.92
2018-04-08T01:24:13.557Z,97611.16
2018-04-08T01:24:45.152Z,97618.39
2018-04-08T01:25:16.751Z,97616.67
2018-04-08T01:25:48.335Z,97620.48
2018-04-08T01:26:19.992Z,97615.75
2018-04-08T01:26:51.580Z,97620.05
2018-04-08T01:27:23.164Z,97623.89
2018-04-08T01:27:54.764Z,97620.15
2018-04-08T01:28:26.369Z,97619.31
2018-04-08T01:28:57.970Z,97623.94
2018-04-08T01:29:29.546Z,97614.63
2018-04-08T01:30:01.160Z,97612.49
2018-04-08T01:30:32.772Z,97621.00
2018-04-08T01:31:04.377Z,97616.33
2018-04-08T01:31:36.016Z,97625.21
2018-04-08T01:32:07.632Z,97616.34
2018-04-08T01:32:39.210Z,97616.41
2018-04-08T01:33:10.792Z,97610.03
2018-04-08T01:33:42.371Z,97610.44
2018-04-08T01:34:13.950Z,97614.27
2018-04-08T01:34:45.534Z,97608.31
2018-04-08T01:35:17.147Z,97609.09
2018-04-08T01:35:48.760Z,97610.34
2018-04-08T01:36:20.408Z,97608.22
2018-04-08T01:36:52.085Z,97615.91
2018-04-08T01:37:23.673Z,97608.25
2018-04-08T01:37:55.291Z,97597.25
2018-04-08T01:38:26.908Z,97605.82
2018-04-08T01:38:58.512Z,97606.63
2018-04-08T01:39:30.091Z,97599.48
2018-04-08T01:40:01.682Z,97610.09
2018-04-08T01:40:33.298Z,97602.86
2018-04-08T01:41:04.906Z,97601.58
2018-04-08T01:41:36.516Z,97599.04
2018-04-08T01:42:08.128Z,97595.64
2018-04-08T01:42:39.739Z,97599.88
2018-04-08T01:43:11.358Z,97591.36
2018-04-08T01:43:42.937Z,97594.83
2018-04-08T01:44:14.545Z,97594.84
2018-04-08T01:44:46.157Z,97590.58
2018-04-08T01:45:17.748Z,97594.84
2018-04-08T01:45:49.347Z,97595.72
2018-04-08T01:46:20.955Z,97593.59
2018-04-08T01:46:52.546Z,97594.00
2018-04-08T01:47:24.129Z,97594.86
2018-04-08T01:47:55.739Z,97593.16
2018-04-08T01:48:27.359Z,97593.66
2018-04-08T01:48:58.948Z,97588.98
2018-04-08T01:49:30.536Z,97595.80
2018-04-08T01:50:02.112Z,97590.67
2018-04-08T01:50:33.696Z,97596.11
2018-04-08T01:51:05.320Z,97597.78
2018-04-08T01:51:36.902Z,97601.67
2018-04-08T01:52:08.512Z,97590.25
2018-04-08T01:52:40.104Z,97599.56
2018-04-08T01:53:11.688Z,97593.98
2018-04-08T01:53:43.343Z,97592.32
2018-04-08T01:54:14.956Z,97602.09
2018-04-08T01:54:46.544Z,97593.17
2018-04-08T01:55:18.132Z,97597.48
2018-04-08T01:55:49.726Z,97596.22
2018-04-08T01:56:21.340Z,97595.02
2018-04-08T01:56:52.966Z,97589.50
2018-04-08T01:57:24.551Z,97593.77
2018-04-08T01:57:56.140Z,97594.63
2018-04-08T01:58:27.719Z,97599.73
2018-04-08T01:58:59.328Z,97587.36
2018-04-08T01:59:30.944Z,97597.09
2018-04-08T02:00:02.547Z,97597.05
2018-04-08T02:00:34.160Z,97591.51
2018-04-08T02:01:05.800Z,97591.52
2018-04-08T02:01:37.404Z,97592.89
2018-04-08T02:02:08.992Z,97600.55
2018-04-08T02:02:40.609Z,97595.02
2018-04-08T02:03:12.219Z,97597.98
2018-04-08T02:03:43.811Z,97588.19
2018-04-08T02:04:15.434Z,97587.25
2018-04-08T02:04:47.024Z,97593.64
2018-04-08T02:05:18.623Z,97593.23
2018-04-08T02:05:50.210Z,97600.41
2018-04-08T02:06:21.816Z,97589.33
2018-04-08T02:06:53.408Z,97591.87
2018-04-08T02:07:24.982Z,97589.75
2018-04-08T02:07:56.578Z,97591.87
2018-04-08T02:08:28.157Z,97590.17
2018-04-08T02:08:59.812Z,97603.80
2018-04-08T02:09:31.401Z,97593.57
2018-04-08T02:10:03.008Z,97577.16
2018-04-08T02:10:34.600Z,97589.66
2018-04-08T02:11:06.208Z,97598.11
2018-04-08T02:11:37.787Z,97590.44
2018-04-08T02:12:09.387Z,97585.05
2018-04-08T02:12:40.975Z,97595.13
2018-04-08T02:13:12.588Z,97584.91
2018-04-08T02:13:44.224Z,97578.16
2018-04-08T02:14:15.808Z,97579.77
2018-04-08T02:14:47.392Z,97586.17
2018-04-08T02:15:19.048Z,97588.37
2018-04-08T02:15:50.665Z,97582.83
2018-04-08T02:16:22.280Z,97590.50
2018-04-08T02:16:53.872Z,97599.43
2018-04-08T02:17:25.480Z,97593.00
2018-04-08T02:17:57.144Z,97596.75
2018-04-08T02:18:28.755Z,97595.48
2018-04-08T02:19:00.371Z,97580.64
2018-04-08T02:19:31.956Z,97599.79
2018-04-08T02:20:03.573Z,97601.52
2018-04-08T02:20:35.166Z,97595.62
2018-04-08T02:21:06.752Z,97598.20
2018-04-08T02:21:38.355Z,97599.02
2018-04-08T02:22:09.972Z,97604.16
2018-04-08T02:22:41.561Z,97605.84
2018-04-08T02:23:13.203Z,97600.66
2018-04-08T02:23:44.779Z,97595.53
2018-04-08T02:24:16.364Z,97590.02
2018-04-08T02:24:47.947Z,97612.48
2018-04-08T02:25:19.535Z,97612.08
2018-04-08T02:25:51.140Z,97594.18
2018-04-08T02:26:22.759Z,97598.42
2018-04-08T02:26:54.358Z,97611.16
2018-04-08T02:27:25.973Z,97603.05
2018-04-08T02:27:57.566Z,97618.48
2018-04-08T02:28:29.152Z,97614.64
2018-04-08T02:29:00.764Z,97615.50
2018-04-08T02:29:32.414Z,97610.80
2018-04-08T02:30:04.010Z,97617.16
2018-04-08T02:30:35.592Z,97607.81
2018-04-08T02:31:07.224Z,97616.34
2018-04-08T02:31:38.829Z,97609.52
2018-04-08T02:32:10.485Z,97605.77
2018-04-08T02:32:42.101Z,97621.11
2018-04-08T02:33:13.724Z,97604.00
2018-04-08T02:33:45.317Z,97610.86
2018-04-08T02:34:16.905Z,97620.17
2018-04-08T02:34:48.492Z,97607.37
2018-04-08T02:35:20.066Z,97604.91
2018-04-08T02:35:51.651Z,97613.76
2018-04-08T02:36:23.223Z,97613.78
2018-04-08T02:36:54.862Z,97611.72
2018-04-08T02:37:26.455Z,97603.98
2018-04-08T02:37:58.036Z,97608.58
2018-04-08T02:38:29.626Z,97613.70
2018-04-08T02:39:01.224Z,97600.93
2018-04-08T02:39:32.841Z,97598.44
2018-04-08T02:40:04.452Z,97607.81
2018-04-08T02:40:36.032Z,97599.28
2018-04-08T02:41:07.635Z,97595.88
2018-04-08T02:41:39.253Z,97597.52
2018-04-08T02:42:10.874Z,97595.73
2018-04-08T02:42:42.494Z,97597.86
2018-04-08T02:43:14.108Z,97595.38
2018-04-08T02:43:45.715Z,97597.50
2018-04-08T02:44:17.377Z,97604.77
2018-04-08T02:44:48.974Z,97595.80
2018-04-08T02:45:20.588Z,97598.38
2018-04-08T02:45:52.246Z,97593.67
2018-04-08T02:46:23.866Z,97594.54
2018-04-08T02:46:55.481Z,97599.66
2018-04-08T02:47:27.085Z,97590.68
2018-04-08T02:47:58.663Z,97595.81
2018-04-08T02:48:30.272Z,97595.38
2018-04-08T02:49:01.851Z,97598.78
2018-04-08T02:49:33.467Z,97594.11
2018-04-08T02:50:05.057Z,97606.88
2018-04-08T02:50:36.663Z,97601.40
2018-04-08T02:51:08.479Z,97599.73
2018-04-08T02:51:40.078Z,97601.40
2018-04-08T02:52:11.684Z,97603.53
2018-04-08T02:52:43.317Z,97602.67
2018-04-08T02:53:14.928Z,97597.09
2018-04-08T02:53:46.517Z,97596.64
2018-04-08T02:54:18.128Z,97609.41
2018-04-08T02:54:49.737Z,97595.01
2018-04-08T02:55:21.327Z,97603.53
2018-04-08T02:55:52.925Z,97604.81
2018-04-08T02:56:24.532Z,97601.05
2018-04-08T02:56:56.141Z,97605.59
2018-04-08T02:57:27.760Z,97604.75
2018-04-08T02:57:59.338Z,97598.80
2018-04-08T02:58:30.912Z,97604.31
2018-04-08T02:59:02.500Z,97598.34
2018-04-08T02:59:34.103Z,97601.31
2018-04-08T03:00:05.716Z,97598.33
2018-04-08T03:00:37.425Z,97596.56
2018-04-08T03:01:09.013Z,97593.22
2018-04-08T03:01:40.650Z,97605.06
2018-04-08T03:02:12.260Z,97600.37
2018-04-08T03:02:43.852Z,97599.47
2018-04-08T03:03:15.422Z,97582.91
2018-04-08T03:03:47.012Z,97596.92
2018-04-08T03:04:18.607Z,97598.61
2018-04-08T03:04:50.503Z,97598.61
2018-04-08T03:05:22.111Z,97602.42
2018-04-08T03:05:53.756Z,97598.58
2018-04-08T03:06:25.413Z,97593.91
2018-04-08T03:06:57.019Z,97601.52
2018-04-08T03:07:28.613Z,97604.92
2018-04-08T03:08:00.220Z,97598.94
2018-04-08T03:08:31.813Z,97604.89
2018-04-08T03:09:03.452Z,97611.70
2018-04-08T03:09:35.052Z,97601.91
2018-04-08T03:10:06.671Z,97604.45
2018-04-08T03:10:38.538Z,97616.33
2018-04-08T03:11:48.908Z,97607.36
2018-04-08T03:12:20.780Z,97601.83
2018-04-08T03:12:52.396Z,97598.35
2018-04-08T03:13:23.980Z,97606.02
2018-04-08T03:13:55.747Z,97603.45
2018-04-08T03:14:27.322Z,97605.09
2018-04-08T03:14:58.923Z,97611.53
2018-04-08T03:15:30.557Z,97600.45
2018-04-08T03:16:02.185Z,97601.77
2018-04-08T03:16:33.776Z,97601.77
2018-04-08T03:17:05.387Z,97605.16
2018-04-08T03:17:47.628Z,97606.00
2018-04-08T03:18:19.233Z,97608.66
2018-04-08T03:18:50.855Z,97604.41
2018-04-08T03:19:22.455Z,97603.57
2018-04-08T03:19:54.050Z,97596.79
2018-04-08T03:20:25.640Z,97603.48
2018-04-08T03:20:57.351Z,97603.87
2018-04-08T03:21:28.963Z,97599.19
2018-04-08T03:22:00.554Z,97593.64
2018-04-08T03:22:32.168Z,97598.78
2018-04-08T03:23:03.746Z,97607.73
2018-04-08T03:23:35.342Z,97594.53
2018-04-08T03:24:06.996Z,97595.02
2018-04-08T03:24:38.629Z,97604.81
2018-04-08T03:25:10.216Z,97604.38
2018-04-08T03:25:41.815Z,97599.22
2018-04-08T03:26:13.429Z,97603.54
2018-04-08T03:26:45.035Z,97599.70
2018-04-08T03:27:16.623Z,97600.56
2018-04-08T03:27:48.199Z,97598.88
2018-04-08T03:28:19.811Z,97601.41
2018-04-08T03:28:51.414Z,97602.25
2018-04-08T03:29:23.038Z,97603.04
2018-04-08T03:29:54.644Z,97601.75
2018-04-08T03:30:26.223Z,97602.63
2018-04-08T03:30:57.807Z,97605.16
2018-04-08T03:31:29.441Z,97613.27
2018-04-08T03:32:01.104Z,97609.51
2018-04-08T03:32:32.748Z,97612.94
2018-04-08T03:33:04.330Z,97614.28
2018-04-08T03:33:35.940Z,97609.17
2018-04-08T03:34:07.532Z,97607.06
2018-04-08T03:34:39.121Z,97610.89
2018-04-08T03:35:10.706Z,97610.45
2018-04-08T03:35:42.292Z,97613.44
2018-04-08T03:36:13.880Z,97609.93
2018-04-08T03:36:45.474Z,97615.50
2018-04-08T03:37:17.138Z,97612.92
2018-04-08T03:37:48.748Z,97612.91
2018-04-08T03:38:20.364Z,97611.46
2018-04-08T03:38:51.942Z,97613.09
2018-04-08T03:39:23.547Z,97608.92
2018-04-08T03:39:55.127Z,97605.19
2018-04-08T03:40:26.740Z,97615.50
2018-04-08T03:40:58.327Z,97610.52
2018-04-08T03:41:29.907Z,97618.22
2018-04-08T03:42:01.482Z,97615.75
2018-04-08T03:42:33.125Z,97610.69
2018-04-08T03:43:04.744Z,97619.16
2018-04-08T03:43:36.332Z,97615.73
2018-04-08T03:44:07.910Z,97616.16
2018-04-08T03:44:39.496Z,97619.20
2018-04-08T03:45:11.075Z,97617.53
2018-04-08T03:45:42.644Z,97609.88
2018-04-08T03:46:14.228Z,97605.53
2018-04-08T03:46:45.836Z,97614.04
2018-04-08T03:47:17.419Z,97610.63
2018-04-08T03:47:49.056Z,97610.19
2018-04-08T03:48:20.634Z,97625.97
2018-04-08T03:48:52.220Z,97613.19
2018-04-08T03:49:23.832Z,97617.52
2018-04-08T03:49:55.437Z,97596.66
2018-04-08T03:50:27.039Z,97625.64
2018-04-08T03:50:58.631Z,97623.06
2018-04-08T03:51:30.251Z,97640.55
2018-04-08T03:52:01.880Z,97615.83
2018-04-08T03:52:33.493Z,97615.45
2018-04-08T03:53:05.104Z,97622.20
2018-04-08T03:53:36.715Z,97619.65
2018-04-08T03:54:08.335Z,97625.60
2018-04-08T03:54:39.941Z,97631.50
2018-04-08T03:55:11.530Z,97629.86
2018-04-08T03:55:43.132Z,97626.04
2018-04-08T03:56:14.741Z,97625.63
2018-04-08T03:56:46.350Z,97623.14
2018-04-08T03:57:17.992Z,97631.23
2018-04-08T03:57:49.614Z,97629.11
2018-04-08T03:58:21.259Z,97623.58
2018-04-08T03:58:52.867Z,97621.50
2018-04-08T03:59:24.488Z,97623.66
2018-04-08T03:59:56.086Z,97622.82
2018-04-08T04:00:27.716Z,97627.48
2018-04-08T04:00:59.324Z,97624.52
2018-04-08T04:01:31.021Z,97621.59
2018-04-08T04:02:02.694Z,97623.72
2018-04-08T04:02:34.319Z,97618.22
2018-04-08T04:03:05.928Z,97620.84
2018-04-08T04:03:37.499Z,97616.13
2018-04-08T04:04:09.084Z,97616.43
2018-04-08T04:04:40.695Z,97618.48
2018-04-08T04:05:12.320Z,97620.56
2018-04-08T04:05:43.924Z,97617.97
2018-04-08T04:06:15.533Z,97590.44
2018-04-08T04:06:47.140Z,97617.11
2018-04-08T04:07:18.768Z,97615.37
2018-04-08T04:07:50.380Z,97618.70
2018-04-08T04:08:21.968Z,97616.58
2018-04-08T04:08:53.552Z,97613.50
2018-04-08T04:09:25.160Z,97611.36
2018-04-08T04:09:56.754Z,97610.45
2018-04-08T04:10:28.380Z,97610.47
2018-04-08T04:11:00.004Z,97607.06
2018-04-08T04:11:31.622Z,97604.64
2018-04-08T04:12:03.235Z,97610.25
2018-04-08T04:12:34.884Z,97609.94
2018-04-08T04:13:06.475Z,97612.16
2018-04-08T04:13:38.072Z,97614.38
2018-04-08T04:14:09.686Z,97618.62
2018-04-08T04:14:41.282Z,97612.72
2018-04-08T04:15:12.904Z,97615.22
2018-04-08T04:15:44.498Z,97615.22
2018-04-08T04:16:16.128Z,97614.34
2018-04-08T04:16:47.797Z,97609.69
2018-04-08T04:17:19.412Z,97622.70
2018-04-08T04:17:50.998Z,97620.15
2018-04-08T04:18:22.630Z,97612.48
2018-04-08T04:18:54.223Z,97605.27
2018-04-08T04:19:25.807Z,97611.98
2018-04-08T04:19:57.386Z,97613.27
2018-04-08T04:20:28.972Z,97618.36
2018-04-08T04:21:00.582Z,97618.36
2018-04-08T04:21:32.263Z,97608.49
2018-04-08T04:22:03.880Z,97612.34
2018-04-08T04:22:35.471Z,97609.70
2018-04-08T04:23:07.054Z,97612.31
2018-04-08T04:23:38.663Z,97606.28
2018-04-08T04:24:10.277Z,97613.94
2018-04-08T04:24:41.903Z,97612.59
2018-04-08T04:25:13.523Z,97605.86
2018-04-08T04:25:45.120Z,97611.73
2018-04-08T04:26:16.730Z,97611.31
2018-04-08T04:26:48.388Z,97608.69
2018-04-08T04:27:20.008Z,97607.05
2018-04-08T04:27:51.638Z,97605.75
2018-04-08T04:28:23.242Z,97602.71
2018-04-08T04:28:54.836Z,97604.30
2018-04-08T04:29:26.427Z,97603.54
2018-04-08T04:29:58.012Z,97597.15
2018-04-08T04:30:29.624Z,97596.24
2018-04-08T04:31:01.214Z,97599.30
2018-04-08T04:31:32.809Z,97597.94
2018-04-08T04:32:04.451Z,97597.05
2018-04-08T04:32:36.195Z,97591.89
2018-04-08T04:33:07.811Z,97596.13
2018-04-08T04:33:39.400Z,97597.83
2018-04-08T04:34:10.983Z,97602.09
2018-04-08T04:34:42.584Z,97603.40
2018-04-08T04:35:14.241Z,97600.37
2018-04-08T04:35:45.867Z,97599.11
2018-04-08T04:36:17.457Z,97595.36
2018-04-08T04:36:49.041Z,97597.41
2018-04-08T04:37:20.639Z,97596.90
2018-04-08T04:37:52.252Z,97599.09
2018-04-08T04:38:23.856Z,97597.38
2018-04-08T04:38:55.473Z,97603.30
2018-04-08T04:39:27.077Z,97595.68
2018-04-08T04:39:58.695Z,97599.47
2018-04-08T04:40:30.311Z,97599.47
2018-04-08T04:41:01.910Z,97599.45
2018-04-08T04:41:33.559Z,97602.88
2018-04-08T04:42:05.151Z,97597.31
2018-04-08T04:42:36.750Z,97597.76
2018-04-08T04:43:08.350Z,97590.93
2018-04-08T04:43:39.941Z,97603.28
2018-04-08T04:44:11.538Z,97596.54
2018-04-08T04:44:43.129Z,97591.03
2018-04-08T04:45:14.739Z,97599.95
2018-04-08T04:45:46.319Z,97587.19
2018-04-08T04:46:17.942Z,97594.34
2018-04-08T04:46:49.526Z,97591.84
2018-04-08T04:47:21.109Z,97591.87
2018-04-08T04:47:52.686Z,97591.50
2018-04-08T04:48:24.296Z,97586.33
2018-04-08T04:48:55.884Z,97590.18
2018-04-08T04:49:27.476Z,97599.94
2018-04-08T04:49:59.083Z,97591.84
2018-04-08T04:50:30.681Z,97595.28
2018-04-08T04:51:02.288Z,97592.66
2018-04-08T04:51:33.907Z,97591.84
2018-04-08T04:52:05.495Z,97590.52
2018-04-08T04:52:37.084Z,97590.05
2018-04-08T04:53:08.672Z,97587.88
2018-04-08T04:53:40.256Z,97592.55
2018-04-08T04:54:11.872Z,97592.75
2018-04-08T04:54:43.491Z,97591.45
2018-04-08T04:55:15.070Z,97596.84
2018-04-08T04:55:46.736Z,97585.23
2018-04-08T04:56:18.344Z,97591.27
2018-04-08T04:56:49.969Z,97602.30
2018-04-08T04:57:21.560Z,97586.53
2018-04-08T04:57:53.176Z,97589.16
2018-04-08T04:58:24.751Z,97593.51
2018-04-08T04:58:56.359Z,97590.59
2018-04-08T04:59:27.939Z,97589.33
2018-04-08T04:59:59.572Z,97594.04
2018-04-08T05:00:31.173Z,97593.59
2018-04-08T05:01:02.751Z,97593.51
2018-04-08T05:01:34.372Z,97596.55
2018-04-08T05:02:05.995Z,97590.63
2018-04-08T05:02:37.584Z,97591.89
2018-04-08T05:03:09.255Z,97589.00
2018-04-08T05:03:40.900Z,97594.17
2018-04-08T05:04:12.491Z,97580.09
2018-04-08T05:04:44.099Z,97585.20
2018-04-08T05:05:15.679Z,97592.83
2018-04-08T05:05:47.333Z,97594.88
2018-04-08T05:06:18.924Z,97589.27
2018-04-08T05:06:50.528Z,97585.50
2018-04-08T05:07:22.140Z,97591.02
2018-04-08T05:07:53.730Z,97588.98
2018-04-08T05:08:25.316Z,97588.17
2018-04-08T05:08:56.929Z,97590.28
2018-04-08T05:09:28.506Z,97591.61
2018-04-08T05:10:00.102Z,97586.92
2018-04-08T05:10:31.741Z,97593.31
2018-04-08T05:11:03.318Z,97581.37
2018-04-08T05:11:34.904Z,97588.62
2018-04-08T05:12:06.592Z,97584.05
2018-04-08T05:12:38.160Z,97582.48
2018-04-08T05:13:09.748Z,97580.02
2018-04-08T05:13:41.336Z,97582.19
2018-04-08T05:14:12.948Z,97583.88
2018-04-08T05:14:44.564Z,97585.22
2018-04-08T05:15:16.180Z,97586.52
2018-04-08T05:15:47.816Z,97594.70
2018-04-08T05:16:19.402Z,97584.95
2018-04-08T05:16:50.978Z,97574.77
2018-04-08T05:17:22.575Z,97582.06
2018-04-08T05:17:54.203Z,97581.72
2018-04-08T05:18:25.794Z,97582.17
2018-04-08T05:18:57.374Z,97577.49
2018-04-08T05:19:28.984Z,97578.41
2018-04-08T05:20:00.572Z,97579.67
2018-04-08T05:20:32.180Z,97585.16
2018-04-08T05:21:03.768Z,97585.20
2018-04-08T05:21:35.376Z,97586.94
2018-04-08T05:22:06.964Z,97576.29
2018-04-08T05:22:38.550Z,97581.55
2018-04-08T05:23:10.233Z,97585.37
2018-04-08T05:23:41.844Z,97580.70
2018-04-08T05:24:13.433Z,97581.12
2018-04-08T05:24:45.027Z,97587.52
2018-04-08T05:25:16.635Z,97584.13
2018-04-08T05:25:48.248Z,97582.41
2018-04-08T05:26:19.846Z,97583.27
2018-04-08T05:26:51.463Z,97586.25
2018-04-08T05:27:23.046Z,97579.52
2018-04-08T05:27:54.651Z,97580.86
2018-04-08T05:28:26.292Z,97588.53
2018-04-08T05:28:57.885Z,97582.50
2018-04-08T05:29:29.486Z,97584.23
2018-04-08T05:30:01.072Z,97575.33
2018-04-08T05:30:32.684Z,97576.13
2018-04-08T05:31:04.278Z,97578.25
2018-04-08T05:31:35.882Z,97576.97
2018-04-08T05:32:07.488Z,97573.98
2018-04-08T05:32:39.087Z,97571.45
2018-04-08T05:33:10.691Z,97559.67
2018-04-08T05:33:42.321Z,97575.70
2018-04-08T05:34:13.918Z,97574.00
2018-04-08T05:34:45.504Z,97568.86
2018-04-08T05:35:17.080Z,97576.53
2018-04-08T05:35:48.683Z,97569.29
2018-04-08T05:36:20.297Z,97576.52
2018-04-08T05:36:51.894Z,97570.85
2018-04-08T05:37:23.485Z,97575.52
2018-04-08T05:37:55.092Z,97574.23
2018-04-08T05:38:26.690Z,97578.14
2018-04-08T05:38:58.344Z,97573.89
2018-04-08T05:39:29.932Z,97572.94
2018-04-08T05:40:01.587Z,97574.94
2018-04-08T05:40:33.213Z,97573.19
2018-04-08T05:41:04.875Z,97570.13
2018-04-08T05:41:36.470Z,97578.58
2018-04-08T05:42:08.074Z,97580.69
2018-04-08T05:42:39.684Z,97572.89
2018-04-08T05:43:11.272Z,97573.36
2018-04-08T05:43:42.856Z,97572.45
2018-04-08T05:44:14.454Z,97574.56
2018-04-08T05:44:46.055Z,97578.39
2018-04-08T05:45:17.644Z,97577.55
2018-04-08T05:45:49.246Z,97581.75
2018-04-08T05:46:20.890Z,97581.73
2018-04-08T05:46:52.500Z,97574.89
2018-04-08T05:47:24.087Z,97578.23
2018-04-08T05:47:55.693Z,97584.19
2018-04-08T05:48:27.287Z,97572.20
2018-04-08T05:48:58.889Z,97575.10
2018-04-08T05:49:30.521Z,97583.53
2018-04-08T05:50:02.156Z,97581.40
2018-04-08T05:50:33.775Z,97585.61
2018-04-08T05:51:05.393Z,97581.77
2018-04-08T05:51:37.003Z,97580.05
2018-04-08T05:52:08.680Z,97573.91
2018-04-08T05:52:40.284Z,97569.19
2018-04-08T05:53:11.868Z,97578.99
2018-04-08T05:53:43.475Z,97577.19
2018-04-08T05:54:15.068Z,97578.67
2018-04-08T05:54:46.676Z,97581.59
2018-04-08T05:55:18.287Z,97575.48
2018-04-08T05:55:49.876Z,97578.25
2018-04-08T05:56:21.485Z,97575.27
2018-04-08T05:56:53.076Z,97578.33
2018-04-08T05:57:24.735Z,97571.63
2018-04-08T05:57:56.345Z,97572.72
2018-04-08T05:58:27.927Z,97574.12
2018-04-08T05:58:59.526Z,97578.72
2018-04-08T05:59:31.151Z,97573.31
2018-04-08T06:00:02.759Z,97571.91
2018-04-08T06:00:34.358Z,97567.32
2018-04-08T06:01:05.967Z,97578.06
2018-04-08T06:01:37.556Z,97567.06
2018-04-08T06:02:09.161Z,97564.08
2018-04-08T06:02:40.798Z,97567.92
2018-04-08T06:03:12.410Z,97562.80
2018-04-08T06:03:43.994Z,97565.80
2018-04-08T06:04:15.590Z,97563.24
2018-04-08T06:04:47.176Z,97565.39
2018-04-08T06:05:18.774Z,97564.18
2018-04-08T06:05:50.394Z,97562.05
2018-04-08T06:06:22.007Z,97569.30
2018-04-08T06:06:53.615Z,97555.75
2018-04-08T06:07:25.270Z,97555.69
2018-04-08T06:07:56.885Z,97557.91
2018-04-08T06:08:28.486Z,97560.04
2018-04-08T06:09:00.101Z,97561.34
2018-04-08T06:09:31.707Z,97558.86
2018-04-08T06:10:03.283Z,97561.45
2018-04-08T06:10:34.872Z,97560.09
2018-04-08T06:11:06.456Z,97561.41
2018-04-08T06:11:38.046Z,97557.58
2018-04-08T06:12:09.646Z,97563.64